Time;durP1;ratioP1;P1;durP2;ratioP2;P2;SDS_P1;SDS_P2;PMS_P1;PMS_P2;Temp;Humidity;BMP_temperature;BMP_pressure;BME280_temperature;BME280_humidity;BME280_pressure;Samples;Min_cycle;Max_cycle;Signal;HPM_P1;HPM_P2
2022/01/27 00:04:25;;;;;;;67.35;38.35;;;4.80;99.90;;;;;;5093588;28;20055;-72
2022/01/27 00:06:51;;;;;;;69.78;38.65;;;4.90;99.90;;;;;;5111483;28;20047;-73
2022/01/27 00:09:23;;;;;;;67.93;39.13;;;4.80;99.90;;;;;;5110054;28;20050;-73
2022/01/27 00:11:49;;;;;;;65.95;38.15;;;4.80;99.90;;;;;;5110173;28;20039;-73
2022/01/27 00:14:18;;;;;;;72.72;39.53;;;;;;;;;;5110060;28;20493;-73
2022/01/27 00:16:53;;;;;;;72.28;37.65;;;4.80;99.90;;;;;;5109962;28;20063;-73
2022/01/27 00:19:19;;;;;;;66.05;37.92;;;;;;;;;;5111622;27;20048;-73
2022/01/27 00:21:45;;;;;;;72.35;38.40;;;;;;;;;;5110990;28;20043;-73
2022/01/27 00:24:11;;;;;;;66.40;37.63;;;5.00;99.90;;;;;;5111184;28;20075;-73
2022/01/27 00:26:40;;;;;;;70.60;37.92;;;5.10;99.90;;;;;;5109986;28;20474;-73
2022/01/27 00:29:06;;;;;;;64.90;37.53;;;4.90;99.90;;;;;;5109677;28;20057;-73
2022/01/27 00:31:31;;;;;;;66.93;38.88;;;4.80;99.90;;;;;;5109998;28;20051;-73
2022/01/27 00:33:58;;;;;;;67.22;37.17;;;4.80;99.90;;;;;;5111208;28;20051;-73
2022/01/27 00:36:24;;;;;;;68.43;38.35;;;4.90;99.90;;;;;;5109792;28;20437;-73
2022/01/27 00:38:50;;;;;;;65.18;38.38;;;;;;;;;;5110868;28;20488;-73
2022/01/27 00:41:19;;;;;;;68.13;38.85;;;4.80;99.90;;;;;;5109491;28;20054;-73
2022/01/27 00:43:46;;;;;;;67.07;38.85;;;;;;;;;;5111094;28;20117;-73
2022/01/27 00:46:15;;;;;;;71.22;38.40;;;4.80;99.90;;;;;;5109830;28;20040;-73
2022/01/27 00:48:42;;;;;;;64.35;37.85;;;5.10;99.90;;;;;;5109462;28;20099;-73
2022/01/27 00:51:10;;;;;;;63.78;37.83;;;5.10;99.90;;;;;;5109361;28;20487;-73
2022/01/27 00:53:46;;;;;;;65.32;37.55;;;4.80;99.90;;;;;;5110984;28;20059;-73
2022/01/27 00:58:59;;;;;;;64.55;37.58;;;4.90;99.90;;;;;;5109408;28;20518;-73
2022/01/27 01:01:30;;;;;;;64.55;37.58;;;4.90;99.90;;;;;;5109868;28;20043;-73
2022/01/27 01:04:00;;;;;;;63.67;36.65;;;4.80;99.90;;;;;;5109498;28;20058;-74
2022/01/27 01:06:40;;;;;;;66.82;37.08;;;4.90;99.90;;;;;;5110064;28;20054;-73
2022/01/27 01:12:20;;;;;;;62.85;37.60;;;;;;;;;;5111292;28;20483;-73
2022/01/27 01:14:43;;;;;;;62.35;36.85;;;5.10;99.90;;;;;;5111041;28;20499;-73
2022/01/27 01:17:31;;;;;;;63.67;36.63;;;;;;;;;;5111392;28;20051;-73
2022/01/27 01:20:19;;;;;;;61.85;36.83;;;4.80;99.90;;;;;;5071965;28;20040;-73
2022/01/27 01:31:26;;;;;;;60.67;35.10;;;;;;;;;;5087729;28;20105;-73
2022/01/27 01:33:59;;;;;;;58.97;35.08;;;5.10;99.90;;;;;;5070938;28;20071;-73
2022/01/27 01:36:36;;;;;;;54.03;34.13;;;5.10;99.90;;;;;;5074955;28;20052;-73
2022/01/27 01:39:04;;;;;;;59.58;34.10;;;5.00;99.90;;;;;;5075305;28;20047;-73
2022/01/27 01:41:30;;;;;;;54.88;32.95;;;;;;;;;;5092102;28;20040;-73
2022/01/27 01:43:56;;;;;;;57.40;33.75;;;5.10;99.90;;;;;;5091762;28;20099;-73
2022/01/27 01:46:21;;;;;;;56.67;33.33;;;4.70;99.90;;;;;;5074863;28;20082;-73
2022/01/27 01:48:47;;;;;;;54.08;32.90;;;4.70;99.90;;;;;;5075221;28;20040;-72
2022/01/27 01:51:29;;;;;;;52.80;33.65;;;5.10;99.90;;;;;;5096814;28;20056;-73
2022/01/27 01:53:56;;;;;;;52.33;32.90;;;5.10;99.90;;;;;;5130483;27;20047;-73
2022/01/27 01:56:22;;;;;;;56.60;32.80;;;5.10;99.90;;;;;;5114590;28;20479;-73
2022/01/27 01:58:48;;;;;;;56.85;32.88;;;4.80;99.90;;;;;;5114625;28;20161;-73
2022/01/27 02:01:14;;;;;;;49.90;32.35;;;5.10;99.90;;;;;;5113133;28;20526;-73
2022/01/27 02:03:40;;;;;;;55.83;32.67;;;;;;;;;;5114472;28;20067;-73
2022/01/27 02:06:07;;;;;;;57.17;34.42;;;4.90;99.90;;;;;;5112622;28;20059;-73
2022/01/27 02:08:47;;;;;;;56.05;34.58;;;4.80;99.90;;;;;;5114042;28;20047;-74
2022/01/27 02:19:29;;;;;;;58.20;34.22;;;5.20;99.90;;;;;;5112303;28;20491;-71
2022/01/27 02:21:58;;;;;;;61.35;34.55;;;5.00;99.90;;;;;;5112350;28;20043;-71
2022/01/27 02:24:26;;;;;;;58.58;34.67;;;5.20;99.90;;;;;;5113656;28;20051;-72
2022/01/27 02:26:52;;;;;;;52.60;33.03;;;;;;;;;;5112322;28;20048;-71
2022/01/27 02:29:20;;;;;;;54.70;33.92;;;5.00;99.90;;;;;;5111958;28;20480;-71
2022/01/27 02:31:47;;;;;;;60.35;34.28;;;5.00;99.90;;;;;;5112031;28;20051;-71
2022/01/27 02:34:13;;;;;;;58.45;33.97;;;5.20;99.90;;;;;;5112977;28;20109;-71
2022/01/27 02:36:40;;;;;;;56.88;34.53;;;5.10;99.90;;;;;;5113087;28;20066;-71
2022/01/27 02:39:07;;;;;;;59.15;34.50;;;5.10;99.90;;;;;;5111850;28;20055;-71
2022/01/27 02:41:45;;;;;;;55.40;34.40;;;5.10;99.90;;;;;;5113476;28;20039;-73
2022/01/27 02:44:29;;;;;;;64.43;35.30;;;4.90;99.90;;;;;;5111997;28;20058;-73
2022/01/27 02:46:56;;;;;;;53.00;33.67;;;5.10;99.90;;;;;;5111376;28;20052;-73
2022/01/27 02:49:22;;;;;;;58.03;34.95;;;;;;;;;;5111926;28;20092;-74
2022/01/27 02:51:48;;;;;;;57.85;34.10;;;5.10;99.90;;;;;;5113194;28;20473;-72
2022/01/27 02:54:14;;;;;;;58.38;34.38;;;5.00;99.90;;;;;;5112978;28;20036;-72
2022/01/27 02:56:44;;;;;;;54.75;33.53;;;5.10;99.90;;;;;;5112770;28;20083;-73
2022/01/27 02:59:11;;;;;;;59.97;34.20;;;5.00;99.90;;;;;;5094531;28;20047;-73
2022/01/27 03:01:37;;;;;;;55.08;33.03;;;;;;;;;;5111280;28;20087;-74
2022/01/27 03:04:06;;;;;;;52.40;33.08;;;4.90;99.90;;;;;;5111486;28;20323;-73
2022/01/27 03:06:32;;;;;;;53.78;32.95;;;5.00;99.90;;;;;;5113273;28;20395;-72
2022/01/27 03:08:58;;;;;;;52.90;32.60;;;;;;;;;;5111420;28;20047;-73
2022/01/27 03:11:47;;;;;;;54.25;33.22;;;5.10;99.90;;;;;;5112520;28;20043;-72
2022/01/27 03:14:15;;;;;;;52.28;32.28;;;5.10;99.90;;;;;;5111303;28;20505;-73
2022/01/27 03:16:41;;;;;;;53.50;32.58;;;;;;;;;;5112350;28;20068;-72
2022/01/27 03:19:07;;;;;;;52.40;32.17;;;4.40;99.90;;;;;;5110919;28;20104;-72
2022/01/27 03:21:34;;;;;;;49.97;31.13;;;5.40;99.90;;;;;;5111336;28;20083;-72
2022/01/27 03:23:59;;;;;;;51.97;31.67;;;5.40;99.90;;;;;;5112837;28;20043;-72
2022/01/27 03:26:26;;;;;;;52.63;31.95;;;;;;;;;;5128515;27;20054;-73
2022/01/27 03:28:53;;;;;;;53.28;32.05;;;5.40;99.90;;;;;;5111013;28;20100;-72
2022/01/27 03:31:22;;;;;;;53.85;32.38;;;5.30;99.90;;;;;;5112654;28;20053;-73
2022/01/27 03:33:49;;;;;;;50.65;31.17;;;5.30;99.90;;;;;;5111182;28;20548;-72
2022/01/27 03:36:16;;;;;;;50.97;31.60;;;;;;;;;;5112389;28;20055;-72
2022/01/27 03:38:44;;;;;;;48.03;30.27;;;5.20;99.90;;;;;;5112116;28;20051;-73
2022/01/27 03:41:11;;;;;;;51.35;31.58;;;;;;;;;;5112005;28;20071;-73
2022/01/27 03:43:38;;;;;;;53.15;31.40;;;5.90;99.90;;;;;;5110565;28;20092;-73
2022/01/27 03:46:05;;;;;;;51.53;30.65;;;5.40;99.90;;;;;;5110657;28;20048;-73
2022/01/27 03:48:31;;;;;;;51.65;31.42;;;5.40;99.90;;;;;;5111929;28;20361;-72
2022/01/27 03:50:57;;;;;;;53.33;32.28;;;5.30;99.90;;;;;;5127580;27;20052;-73
2022/01/27 03:53:22;;;;;;;55.65;31.95;;;5.20;99.90;;;;;;5127747;27;20089;-74
2022/01/27 03:55:48;;;;;;;56.83;32.13;;;5.50;99.90;;;;;;5111659;28;20517;-73
2022/01/27 03:58:15;;;;;;;55.25;31.73;;;;;;;;;;5126951;27;20040;-73
2022/01/27 04:00:42;;;;;;;56.13;32.28;;;5.20;99.90;;;;;;5110668;28;20047;-73
2022/01/27 04:03:10;;;;;;;57.58;32.15;;;5.60;99.90;;;;;;5110466;28;20039;-73
2022/01/27 04:05:40;;;;;;;61.20;34.50;;;5.40;99.90;;;;;;5110367;28;20055;-73
2022/01/27 04:08:09;;;;;;;60.85;33.95;;;4.80;99.90;;;;;;5111791;28;20410;-73
2022/01/27 04:10:35;;;;;;;56.60;33.50;;;5.10;99.90;;;;;;5093548;28;20043;-72
2022/01/27 04:13:02;;;;;;;57.17;34.40;;;5.00;99.90;;;;;;5111427;28;20083;-71
2022/01/27 04:15:28;;;;;;;57.78;33.72;;;5.00;99.90;;;;;;5109936;28;20059;-71
2022/01/27 04:17:54;;;;;;;58.15;32.67;;;;;;;;;;5111606;28;20051;-72
2022/01/27 04:20:20;;;;;;;61.15;34.20;;;5.40;99.90;;;;;;5111537;28;20055;-72
2022/01/27 04:22:46;;;;;;;58.05;33.55;;;;;;;;;;5110032;28;20058;-71
2022/01/27 04:25:14;;;;;;;60.80;34.20;;;5.30;99.90;;;;;;5109556;28;20048;-72
2022/01/27 04:27:45;;;;;;;61.60;33.25;;;5.00;99.90;;;;;;5111204;28;20043;-72
2022/01/27 04:30:18;;;;;;;61.78;33.70;;;4.80;99.90;;;;;;5109865;28;20118;-72
2022/01/27 04:32:52;;;;;;;54.42;32.65;;;5.20;99.90;;;;;;5109850;28;20081;-72
2022/01/27 04:35:20;;;;;;;64.05;33.25;;;5.00;99.90;;;;;;5109663;28;20062;-72
2022/01/27 04:43:12;;;;;;;56.22;32.40;;;5.00;99.90;;;;;;5109633;28;20055;-71
2022/01/27 04:48:31;;;;;;;57.33;31.90;;;5.20;99.90;;;;;;5088211;28;20071;-71
2022/01/27 04:51:05;;;;;;;50.00;32.15;;;;;;;;;;5071635;28;20056;-72
2022/01/27 04:53:35;;;;;;;56.88;32.70;;;5.40;99.90;;;;;;5071723;28;20113;-71
2022/01/27 04:56:02;;;;;;;55.15;32.00;;;;;;;;;;5071523;28;20169;-71
2022/01/27 04:58:32;;;;;;;57.15;31.77;;;4.90;99.90;;;;;;5087980;28;20044;-71
2022/01/27 05:01:00;;;;;;;52.90;31.63;;;5.30;99.90;;;;;;5071069;28;20048;-71
2022/01/27 05:03:49;;;;;;;55.05;31.55;;;5.60;99.90;;;;;;5087682;28;20101;-71
2022/01/27 05:06:15;;;;;;;53.67;31.05;;;;;;;;;;5087611;28;20055;-71
2022/01/27 05:08:42;;;;;;;53.75;31.13;;;5.20;99.90;;;;;;5088794;28;20496;-71
2022/01/27 05:13:48;;;;;;;53.03;31.13;;;;;;;;;;5074871;28;20052;-71
2022/01/27 05:16:14;;;;;;;54.15;30.75;;;5.90;99.90;;;;;;5074786;28;20060;-71
2022/01/27 05:18:40;;;;;;;51.15;30.60;;;;;;;;;;5074722;28;20063;-71
2022/01/27 05:21:05;;;;;;;53.20;31.13;;;5.40;99.90;;;;;;5074853;28;20060;-72
2022/01/27 05:23:31;;;;;;;52.38;30.33;;;5.30;99.90;;;;;;5091945;28;20089;-71
2022/01/27 05:26:00;;;;;;;53.63;30.92;;;;;;;;;;5108710;28;20048;-71
2022/01/27 05:28:28;;;;;;;53.88;31.17;;;5.60;99.90;;;;;;5113428;28;20043;-71
2022/01/27 05:30:54;;;;;;;59.22;32.28;;;;;;;;;;5114925;28;20190;-71
2022/01/27 05:33:20;;;;;;;59.10;31.80;;;;;;;;;;5113577;28;20075;-71
2022/01/27 05:35:46;;;;;;;56.35;31.83;;;5.70;99.90;;;;;;5096109;28;20055;-71
2022/01/27 05:38:15;;;;;;;60.47;31.60;;;5.20;99.90;;;;;;5114507;28;20096;-71
2022/01/27 05:40:42;;;;;;;60.13;31.17;;;5.10;99.90;;;;;;5114799;27;20049;-72
2022/01/27 05:43:09;;;;;;;55.85;30.60;;;5.30;99.90;;;;;;5114876;28;20040;-72
2022/01/27 05:45:35;;;;;;;58.80;30.65;;;5.20;99.90;;;;;;5114445;28;20048;-72
2022/01/27 05:48:01;;;;;;;59.88;32.03;;;;;;;;;;5112887;28;20043;-72
2022/01/27 05:50:26;;;;;;;59.60;31.13;;;5.40;99.90;;;;;;5112664;28;20050;-71
2022/01/27 05:52:54;;;;;;;54.10;29.90;;;6.10;99.90;;;;;;5112710;28;20040;-72
2022/01/27 05:55:20;;;;;;;56.10;29.67;;;5.30;99.90;;;;;;5129998;27;20087;-72
2022/01/27 05:57:46;;;;;;;58.17;31.15;;;;;;;;;;5114081;27;20376;-72
2022/01/27 06:00:12;;;;;;;55.13;30.58;;;5.80;99.90;;;;;;5112569;28;20044;-72
2022/01/27 06:02:39;;;;;;;61.90;31.02;;;5.70;99.90;;;;;;5113745;27;20101;-72
2022/01/27 06:05:05;;;;;;;62.47;31.20;;;5.50;99.90;;;;;;5112159;28;20444;-72
2022/01/27 06:07:31;;;;;;;59.03;31.30;;;5.50;99.90;;;;;;5112941;28;20471;-72
2022/01/27 06:09:57;;;;;;;64.60;31.30;;;5.80;99.90;;;;;;5113685;28;20051;-72
2022/01/27 06:12:23;;;;;;;62.60;31.98;;;5.70;99.90;;;;;;5112384;28;20429;-72
2022/01/27 06:14:50;;;;;;;61.10;31.83;;;5.60;99.90;;;;;;5113603;28;20044;-73
2022/01/27 06:17:16;;;;;;;72.97;32.90;;;;;;;;;;5113876;28;20153;-72
2022/01/27 06:19:44;;;;;;;68.47;34.58;;;;;;;;;;5112028;28;20040;-72
2022/01/27 06:22:13;;;;;;;62.90;32.72;;;5.50;99.90;;;;;;5111978;28;20058;-72
2022/01/27 06:24:41;;;;;;;68.38;33.55;;;5.40;99.90;;;;;;5112582;28;20051;-72
2022/01/27 06:27:07;;;;;;;67.38;33.88;;;6.00;99.90;;;;;;5113374;28;20395;-72
2022/01/27 06:29:33;;;;;;;73.22;35.00;;;5.50;99.90;;;;;;5113356;28;20039;-73
2022/01/27 06:32:00;;;;;;;72.80;35.03;;;;;;;;;;5111793;28;20478;-73
2022/01/27 06:34:26;;;;;;;75.07;35.67;;;;;;;;;;5112190;28;20441;-73
2022/01/27 06:36:51;;;;;;;83.65;37.00;;;5.40;99.90;;;;;;5111878;28;20051;-72
2022/01/27 06:39:17;;;;;;;87.18;35.85;;;;;;;;;;5128980;27;20054;-72
2022/01/27 06:41:44;;;;;;;85.28;36.10;;;5.30;99.90;;;;;;5111500;28;20459;-72
2022/01/27 06:44:11;;;;;;;87.25;37.72;;;5.60;99.90;;;;;;5110478;28;20403;-72
2022/01/27 06:46:37;;;;;;;90.35;38.13;;;;;;;;;;5112180;28;20402;-72
2022/01/27 06:49:04;;;;;;;99.68;39.80;;;5.60;99.90;;;;;;5112827;28;20093;-72
2022/01/27 06:51:30;;;;;;;95.55;38.90;;;5.40;99.90;;;;;;5112795;28;20043;-72
2022/01/27 06:53:56;;;;;;;100.32;39.33;;;5.50;99.90;;;;;;5113044;28;20055;-71
2022/01/27 06:56:23;;;;;;;94.75;39.15;;;;;;;;;;5089345;28;20051;-72
2022/01/27 06:58:48;;;;;;;117.28;43.20;;;5.70;99.90;;;;;;5124862;27;20114;-71
2022/01/27 07:01:14;;;;;;;109.30;41.10;;;5.80;99.90;;;;;;5110998;27;20122;-70
2022/01/27 07:03:39;;;;;;;103.90;40.92;;;5.40;99.90;;;;;;5123290;27;20046;-70
2022/01/27 07:06:06;;;;;;;98.50;41.22;;;;;;;;;;5124652;27;20051;-70
2022/01/27 07:08:32;;;;;;;101.55;39.95;;;5.60;99.90;;;;;;5109216;28;20094;-70
2022/01/27 07:10:58;;;;;;;115.00;42.58;;;5.40;99.90;;;;;;5100648;28;20056;-70
2022/01/27 07:13:24;;;;;;;106.43;41.45;;;6.00;99.90;;;;;;5110790;27;20039;-70
2022/01/27 07:15:50;;;;;;;103.00;39.65;;;;;;;;;;5091474;27;20047;-70
2022/01/27 07:18:16;;;;;;;101.43;39.60;;;5.80;99.90;;;;;;5109020;28;20040;-70
2022/01/27 07:20:42;;;;;;;93.97;39.20;;;5.90;99.90;;;;;;5112309;27;20495;-70
2022/01/27 07:23:09;;;;;;;103.60;40.92;;;5.70;99.90;;;;;;5108869;28;20059;-70
2022/01/27 07:25:35;;;;;;;103.25;40.40;;;5.70;99.90;;;;;;5110437;28;20070;-70
2022/01/27 07:28:01;;;;;;;99.00;38.85;;;5.80;99.90;;;;;;5110218;27;20433;-70
2022/01/27 07:30:26;;;;;;;88.13;36.85;;;6.00;99.90;;;;;;5107884;27;20040;-70
2022/01/27 07:32:52;;;;;;;92.90;38.22;;;5.50;99.90;;;;;;5122282;27;20047;-70
2022/01/27 07:35:18;;;;;;;87.60;37.80;;;;;;;;;;5110543;28;20066;-72
2022/01/27 07:37:45;;;;;;;88.25;37.65;;;6.30;99.90;;;;;;5107811;28;20058;-71
2022/01/27 07:40:11;;;;;;;81.80;36.33;;;5.70;99.90;;;;;;5109817;28;20444;-71
2022/01/27 07:42:37;;;;;;;83.18;35.75;;;5.90;99.90;;;;;;5108406;28;20086;-70
2022/01/27 07:45:04;;;;;;;81.63;35.53;;;5.70;99.90;;;;;;5109784;28;20059;-70
2022/01/27 07:47:31;;;;;;;80.57;34.72;;;;;;;;;;5108908;28;20102;-70
2022/01/27 07:49:56;;;;;;;67.95;32.63;;;5.50;99.90;;;;;;5108984;28;20445;-70
2022/01/27 07:52:22;;;;;;;73.85;32.55;;;6.40;99.90;;;;;;5108456;28;20039;-71
2022/01/27 07:54:48;;;;;;;69.70;31.45;;;5.20;99.90;;;;;;5110372;28;20479;-70
2022/01/27 07:57:15;;;;;;;59.13;30.15;;;;;;;;;;5112394;27;20527;-70
2022/01/27 07:59:41;;;;;;;62.58;30.80;;;5.90;99.90;;;;;;5117367;27;20047;-70
2022/01/27 08:02:07;;;;;;;62.63;30.23;;;6.00;99.90;;;;;;5108332;28;20084;-71
2022/01/27 08:04:33;;;;;;;55.97;28.25;;;;;;;;;;5122117;27;20506;-71
2022/01/27 08:07:03;;;;;;;56.92;28.55;;;6.00;99.90;;;;;;5108378;28;20036;-70
2022/01/27 08:09:29;;;;;;;54.47;26.48;;;6.20;99.90;;;;;;5107950;28;20523;-70
2022/01/27 08:11:55;;;;;;;54.58;26.55;;;;;;;;;;5108373;28;20044;-70
2022/01/27 08:14:24;;;;;;;50.75;25.80;;;;;;;;;;5107695;28;20051;-70
2022/01/27 08:16:51;;;;;;;53.67;26.92;;;;;;;;;;5108015;28;20074;-70
2022/01/27 08:19:16;;;;;;;48.47;26.02;;;6.00;99.90;;;;;;5108022;28;20562;-70
2022/01/27 08:21:42;;;;;;;49.72;25.63;;;6.10;99.90;;;;;;5118864;27;20142;-70
2022/01/27 08:24:08;;;;;;;51.53;25.42;;;;;;;;;;5109669;27;20047;-69
2022/01/27 08:26:41;;;;;;;45.67;24.23;;;6.20;99.90;;;;;;5107929;28;20036;-70
2022/01/27 08:31:56;;;;;;;48.83;25.85;;;5.70;99.90;;;;;;5106030;28;20479;-71
2022/01/27 08:34:32;;;;;;;54.90;26.48;;;6.30;99.90;;;;;;5109205;27;20078;-70
2022/01/27 08:37:00;;;;;;;54.75;27.73;;;6.20;99.90;;;;;;5107982;28;20567;-70
2022/01/27 08:39:26;;;;;;;62.97;28.00;;;6.50;99.90;;;;;;5107503;28;20055;-70
2022/01/27 08:41:52;;;;;;;66.80;30.45;;;6.20;99.90;;;;;;5107769;28;20039;-70
2022/01/27 08:44:19;;;;;;;63.78;31.48;;;6.20;99.90;;;;;;5107212;27;20488;-70
2022/01/27 08:46:45;;;;;;;72.22;31.80;;;;;;;;;;5108809;28;20463;-70
2022/01/27 08:49:11;;;;;;;75.75;32.53;;;6.50;99.90;;;;;;5090510;28;20074;-70
2022/01/27 08:51:37;;;;;;;86.93;34.63;;;6.60;99.90;;;;;;5108798;28;20514;-70
2022/01/27 08:54:04;;;;;;;87.50;34.72;;;6.40;99.90;;;;;;5107535;27;20042;-71
2022/01/27 08:56:30;;;;;;;80.05;34.65;;;5.90;99.90;;;;;;5107356;28;20051;-69
2022/01/27 08:58:56;;;;;;;82.88;34.72;;;;;;;;;;5107807;28;20035;-70
2022/01/27 09:01:24;;;;;;;84.47;34.40;;;;;;;;;;5107331;28;20031;-69
2022/01/27 09:03:51;;;;;;;78.63;33.80;;;6.30;99.90;;;;;;5107096;28;20067;-70
2022/01/27 09:06:19;;;;;;;80.47;34.70;;;6.60;99.90;;;;;;5106850;28;20039;-70
2022/01/27 09:08:45;;;;;;;87.45;34.25;;;6.50;99.90;;;;;;5109364;28;20035;-70
2022/01/27 09:11:11;;;;;;;77.35;33.83;;;6.20;99.90;;;;;;5107006;28;20048;-70
2022/01/27 09:13:38;;;;;;;83.25;33.50;;;7.10;99.90;;;;;;5107915;28;20051;-70
2022/01/27 09:16:07;;;;;;;92.47;34.25;;;6.60;99.90;;;;;;5107250;28;20039;-70
2022/01/27 09:18:33;;;;;;;77.82;32.25;;;6.50;99.90;;;;;;5090541;28;20043;-70
2022/01/27 09:21:06;;;;;;;82.38;32.90;;;6.70;99.90;;;;;;5108353;27;20669;-71
2022/01/27 09:23:33;;;;;;;81.65;32.15;;;;;;;;;;5108657;28;20047;-71
2022/01/27 09:26:04;;;;;;;79.32;31.50;;;6.40;99.90;;;;;;5106621;28;20050;-71
2022/01/27 09:28:30;;;;;;;78.55;32.63;;;;;;;;;;5105123;28;20078;-70
2022/01/27 09:30:56;;;;;;;80.85;31.80;;;6.70;99.90;;;;;;5107379;28;20083;-71
2022/01/27 09:33:22;;;;;;;74.88;29.63;;;7.30;99.90;;;;;;5106620;28;20584;-71
2022/01/27 09:35:48;;;;;;;77.32;28.00;;;6.70;99.90;;;;;;5104884;28;20556;-70
2022/01/27 09:38:18;;;;;;;66.82;27.88;;;;;;;;;;5100305;28;20074;-70
2022/01/27 09:40:47;;;;;;;62.97;25.42;;;;;;;;;;5113209;28;20055;-70
2022/01/27 09:43:14;;;;;;;68.88;25.70;;;7.10;99.90;;;;;;5103765;28;20395;-70
2022/01/27 09:45:40;;;;;;;67.10;25.05;;;7.30;99.90;;;;;;5101810;27;20517;-70
2022/01/27 09:48:14;;;;;;;57.85;24.23;;;7.20;99.90;;;;;;5110144;28;20119;-70
2022/01/27 09:53:09;;;;;;;57.97;21.52;;;7.70;99.90;;;;;;5106467;28;20164;-70
2022/01/27 09:55:35;;;;;;;58.88;21.77;;;;;;;;;;5102026;28;20399;-70
2022/01/27 09:58:02;;;;;;;53.03;20.38;;;;;;;;;;5110185;28;20524;-71
2022/01/27 10:00:27;;;;;;;54.13;19.00;;;7.30;99.90;;;;;;5109571;28;20499;-70
2022/01/27 10:03:13;;;;;;;46.33;18.65;;;7.60;99.90;;;;;;5109930;27;20067;-70
2022/01/27 10:05:39;;;;;;;56.58;20.65;;;7.60;99.90;;;;;;5092353;28;20081;-70
2022/01/27 10:08:14;;;;;;;48.85;15.95;;;7.60;99.90;;;;;;5110250;28;20399;-70
2022/01/27 10:10:44;;;;;;;46.97;16.10;;;7.70;99.90;;;;;;5093193;28;20118;-69
2022/01/27 10:13:12;;;;;;;42.40;15.30;;;7.60;99.90;;;;;;5110877;27;20054;-70
2022/01/27 10:15:41;;;;;;;36.97;14.82;;;8.00;99.90;;;;;;5109315;28;20055;-70
2022/01/27 10:18:18;;;;;;;47.47;14.55;;;7.60;99.90;;;;;;5108812;28;20519;-70
2022/01/27 10:21:02;;;;;;;38.40;15.10;;;7.80;99.90;;;;;;5108340;28;20399;-70
2022/01/27 10:23:30;;;;;;;39.28;14.68;;;7.80;99.90;;;;;;5109402;28;20146;-70
2022/01/27 10:26:07;;;;;;;37.80;12.95;;;7.80;99.90;;;;;;5107136;28;20047;-70
2022/01/27 10:28:46;;;;;;;37.75;13.15;;;7.80;99.90;;;;;;5093136;28;20105;-70
2022/01/27 10:31:19;;;;;;;36.72;12.98;;;7.80;99.90;;;;;;5105290;28;20135;-70
2022/01/27 10:33:54;;;;;;;40.20;12.77;;;7.80;99.90;;;;;;5109663;27;20056;-70
2022/01/27 10:36:26;;;;;;;34.90;12.82;;;7.90;99.90;;;;;;5108639;28;20036;-70
2022/01/27 10:39:05;;;;;;;41.70;13.35;;;7.90;99.90;;;;;;5109228;28;20043;-70
2022/01/27 10:41:33;;;;;;;37.50;13.13;;;8.00;99.90;;;;;;5109288;28;20048;-70
2022/01/27 10:44:14;;;;;;;31.50;12.13;;;7.80;99.90;;;;;;5108068;27;20039;-70
2022/01/27 10:46:49;;;;;;;39.20;12.90;;;8.00;99.90;;;;;;5106288;28;20079;-70
2022/01/27 10:49:26;;;;;;;33.80;12.02;;;;;;;;;;5107709;28;20141;-70
2022/01/27 10:51:54;;;;;;;38.72;12.85;;;;;;;;;;5108592;28;20157;-70
2022/01/27 10:54:39;;;;;;;40.58;13.25;;;8.00;99.90;;;;;;5108709;28;20071;-70
2022/01/27 10:57:07;;;;;;;38.10;12.63;;;8.30;99.90;;;;;;5108885;28;20055;-70
2022/01/27 10:59:34;;;;;;;39.13;12.60;;;7.60;99.90;;;;;;5106353;28;20058;-70
2022/01/27 11:02:06;;;;;;;34.08;12.00;;;8.30;99.90;;;;;;5109355;28;20044;-70
2022/01/27 11:04:35;;;;;;;35.83;12.32;;;7.20;99.90;;;;;;5108485;28;20487;-70
2022/01/27 11:07:02;;;;;;;34.45;12.88;;;7.60;99.90;;;;;;5108977;28;20562;-70
2022/01/27 11:09:34;;;;;;;36.47;12.55;;;7.90;99.90;;;;;;5109600;27;20134;-70
2022/01/27 11:12:05;;;;;;;38.80;12.95;;;;;;;;;;5109819;28;20079;-70
2022/01/27 11:14:33;;;;;;;35.25;11.88;;;8.00;99.90;;;;;;5109218;28;20056;-70
2022/01/27 11:17:00;;;;;;;38.92;11.45;;;7.80;99.90;;;;;;5108509;28;20566;-70
2022/01/27 11:27:28;;;;;;;29.30;11.30;;;8.20;99.90;;;;;;5108309;28;20585;-70
2022/01/27 11:30:24;;;;;;;34.15;11.43;;;8.00;99.90;;;;;;5108827;28;20062;-70
2022/01/27 11:33:18;;;;;;;28.95;11.57;;;8.10;99.90;;;;;;5108670;28;20039;-70
2022/01/27 11:35:44;;;;;;;37.50;12.25;;;7.90;99.90;;;;;;5107912;28;20440;-70
2022/01/27 11:38:12;;;;;;;32.00;11.93;;;7.90;99.90;;;;;;5100917;28;20043;-70
2022/01/27 11:40:41;;;;;;;38.33;12.40;;;8.00;99.90;;;;;;5104141;28;20563;-70
2022/01/27 11:43:11;;;;;;;33.20;11.77;;;8.20;99.90;;;;;;5104804;28;20056;-70
2022/01/27 11:45:38;;;;;;;29.58;10.82;;;8.10;99.90;;;;;;5108389;28;20059;-71
2022/01/27 11:48:11;;;;;;;29.92;10.70;;;8.10;99.90;;;;;;5109443;28;20051;-70
2022/01/27 11:50:47;;;;;;;29.55;9.93;;;8.20;99.90;;;;;;5091758;28;20399;-70
2022/01/27 11:53:26;;;;;;;;;;;8.20;99.90;;;;;;5109710;28;20368;-70
2022/01/27 11:55:52;;;;;;;29.48;8.57;;;;;;;;;;5089161;28;19928;-70
2022/01/27 11:58:21;;;;;;;26.73;7.70;;;8.20;99.90;;;;;;5110210;28;20059;-70
2022/01/27 12:01:10;;;;;;;33.53;7.25;;;8.30;99.90;;;;;;5086219;27;20047;-71
2022/01/27 12:03:37;;;;;;;27.95;7.40;;;8.50;99.90;;;;;;5090424;28;20071;-70
2022/01/27 12:06:19;;;;;;;23.85;7.20;;;8.60;99.90;;;;;;5098865;28;20039;-71
2022/01/27 12:08:45;;;;;;;26.23;6.45;;;8.50;99.90;;;;;;5110848;28;20043;-70
2022/01/27 12:11:43;;;;;;;29.17;6.32;;;8.40;99.90;;;;;;5109552;28;20453;-70
2022/01/27 12:14:09;;;;;;;27.77;6.47;;;8.40;99.90;;;;;;5110570;28;20502;-70
2022/01/27 12:19:09;;;;;;;23.17;6.00;;;8.60;99.90;;;;;;5108554;28;20130;-70
2022/01/27 12:21:58;;;;;;;25.88;6.35;;;8.90;99.90;;;;;;5109088;28;20123;-70
2022/01/27 12:24:27;;;;;;;20.45;6.03;;;8.50;99.90;;;;;;5109572;28;20608;-70
2022/01/27 12:26:53;;;;;;;23.60;5.75;;;;;;;;;;5109532;28;20619;-69
2022/01/27 12:29:28;;;;;;;22.98;5.53;;;8.40;99.90;;;;;;5109337;28;20072;-70
2022/01/27 12:31:56;;;;;;;21.73;5.50;;;8.90;99.90;;;;;;5109146;28;20036;-70
2022/01/27 12:34:22;;;;;;;28.02;5.78;;;;;;;;;;5110665;28;20110;-70
2022/01/27 12:37:05;;;;;;;23.42;5.13;;;8.50;99.90;;;;;;5109265;28;20043;-70
2022/01/27 12:39:34;;;;;;;20.85;4.85;;;9.00;99.90;;;;;;5109259;28;20542;-70
2022/01/27 12:42:02;;;;;;;22.33;4.43;;;8.90;99.90;;;;;;5110475;28;20048;-70
2022/01/27 12:44:29;;;;;;;28.40;5.07;;;8.90;99.90;;;;;;5111027;28;20051;-70
2022/01/27 12:47:14;;;;;;;22.70;4.35;;;8.10;99.90;;;;;;5109104;28;20569;-70
2022/01/27 12:50:07;;;;;;;23.95;5.35;;;9.30;99.90;;;;;;5107929;28;20043;-70
2022/01/27 12:52:42;;;;;;;20.42;4.43;;;9.20;99.90;;;;;;5109987;28;20051;-70
2022/01/27 12:55:33;;;;;;;19.40;4.53;;;8.90;99.90;;;;;;5109866;28;20123;-70
2022/01/27 12:58:01;;;;;;;24.13;5.18;;;8.90;99.90;;;;;;5108667;28;20048;-70
2022/01/27 13:00:28;;;;;;;19.42;4.47;;;8.80;99.90;;;;;;5119185;27;20406;-70
2022/01/27 13:03:02;;;;;;;23.27;5.05;;;9.80;99.90;;;;;;5108543;28;20100;-70
2022/01/27 13:05:35;;;;;;;20.80;4.82;;;8.80;99.90;;;;;;5108267;28;20075;-70
2022/01/27 13:08:06;;;;;;;23.27;4.78;;;9.20;99.90;;;;;;5122793;28;20042;-70
2022/01/27 13:10:32;;;;;;;21.42;4.65;;;9.20;99.90;;;;;;5109575;28;20388;-70
2022/01/27 13:13:10;;;;;;;24.48;4.72;;;9.20;99.90;;;;;;5108867;28;20442;-70
2022/01/27 13:15:36;;;;;;;20.92;4.60;;;9.30;99.90;;;;;;5106982;28;20133;-70
2022/01/27 13:18:12;;;;;;;18.58;4.22;;;9.30;99.90;;;;;;5109659;28;20471;-70
2022/01/27 13:20:45;;;;;;;;;;;9.30;99.90;;;;;;5110303;28;20390;-70
2022/01/27 13:25:44;;;;;;;18.25;4.05;;;9.20;99.90;;;;;;5108059;28;20410;-71
2022/01/27 13:28:19;;;;;;;19.02;4.10;;;9.10;99.90;;;;;;5107952;28;20043;-70
2022/01/27 13:30:49;;;;;;;24.77;4.85;;;9.30;99.90;;;;;;5092725;28;20128;-70
2022/01/27 13:33:16;;;;;;;20.90;4.47;;;9.20;99.90;;;;;;5119578;27;20046;-72
2022/01/27 13:35:43;;;;;;;23.20;4.30;;;9.20;99.90;;;;;;5112294;28;20494;-72
2022/01/27 13:38:11;;;;;;;19.73;4.13;;;9.90;99.90;;;;;;5112093;28;20040;-71
2022/01/27 13:43:37;;;;;;;23.65;4.93;;;9.20;99.90;;;;;;5112899;28;20044;-71
2022/01/27 13:46:03;;;;;;;20.88;4.57;;;9.30;99.90;;;;;;5113902;28;20143;-72
2022/01/27 13:48:42;;;;;;;22.85;4.20;;;9.10;99.90;;;;;;5114236;28;20421;-72
2022/01/27 13:51:18;;;;;;;23.75;4.72;;;9.10;99.90;;;;;;5111864;28;20043;-71
2022/01/27 13:54:04;;;;;;;26.20;4.65;;;9.10;99.90;;;;;;5113159;27;20032;-71
2022/01/27 13:56:44;;;;;;;26.40;4.35;;;9.30;99.90;;;;;;5111846;28;20083;-71
2022/01/27 13:59:16;;;;;;;24.63;4.75;;;9.10;99.90;;;;;;5111442;28;20494;-72
2022/01/27 14:01:42;;;;;;;21.75;4.22;;;8.80;99.90;;;;;;5111526;28;20521;-72
2022/01/27 14:04:09;;;;;;;18.92;4.10;;;8.50;99.90;;;;;;5111486;28;20040;-72
2022/01/27 14:06:56;;;;;;;19.33;4.07;;;9.00;99.90;;;;;;5113198;28;20143;-72